Terminal Aerodrome Forecast
Issued by NWS Cleveland, OH

Home | Current Version | Previous Version | Graphics & Text | Print | Product List | Glossary Off
Versions: 1 2 3 4 5 6 7 8 9 10 11 12 13 14 15 16 17 18 19 20 21 22 23

000
FTUS41 KCLE 042334
TAFTOL
TAF
KTOL 042334Z 0500/0524 23005KT P6SM VCSH SCT050 OVC120
     FM050600 VRB02KT 6SM BR SCT120 BKN250
      TEMPO 0509/0513 4SM BR
     FM051800 21005KT P6SM SCT050=

USA.gov is the U.S. government's official web portal to all federal, state and local government web resources and services.